Time;durP1;ratioP1;P1;durP2;ratioP2;P2;SDS_P1;SDS_P2;PMS_P1;PMS_P2;Temp;Humidity;BMP_temperature;BMP_pressure;BME280_temperature;BME280_humidity;BME280_pressure;Samples;Min_cycle;Max_cycle;Signal;HPM_P1;HPM_P2
2023/09/26 00:03:41;;;;;;;5.30;4.80;;;;;;;12.61;76.77;101116.69;10446005;28;20048;-78
2023/09/26 00:08:45;;;;;;;8.35;5.22;;;;;;;12.57;76.97;101118.78;10447279;28;20062;-77
2023/09/26 00:13:50;;;;;;;4.80;4.32;;;;;;;12.62;76.90;101123.81;10434812;28;20060;-77
2023/09/26 00:18:53;;;;;;;6.13;4.78;;;;;;;12.57;77.29;101121.47;10452356;28;20058;-78
2023/09/26 00:23:56;;;;;;;7.50;4.68;;;;;;;12.44;77.29;101126.09;10451991;28;20057;-77
2023/09/26 00:29:00;;;;;;;6.13;5.07;;;;;;;12.43;77.65;101131.63;10449532;28;20182;-78
2023/09/26 00:34:04;;;;;;;7.60;4.95;;;;;;;12.38;77.91;101123.88;10466866;28;20055;-77
2023/09/26 00:39:07;;;;;;;5.43;4.93;;;;;;;12.36;78.15;101123.97;10432595;28;20715;-76
2023/09/26 00:44:12;;;;;;;10.00;4.97;;;;;;;12.41;77.85;101126.34;10468144;28;21215;-77
2023/09/26 00:49:15;;;;;;;5.80;5.18;;;;;;;12.43;77.54;101123.53;10490889;28;20052;-76
2023/09/26 00:54:18;;;;;;;5.43;4.68;;;;;;;12.46;77.25;101126.84;10474563;28;20128;-77
2023/09/26 00:59:23;;;;;;;5.32;4.88;;;;;;;12.40;77.73;101121.94;10433749;28;20060;-76
2023/09/26 01:04:25;;;;;;;5.32;4.80;;;;;;;12.34;77.36;101123.25;10431766;28;20059;-78
2023/09/26 01:09:28;;;;;;;7.22;4.95;;;;;;;12.28;77.74;101128.22;10450709;28;20040;-78
2023/09/26 01:14:33;;;;;;;7.82;5.20;;;;;;;12.20;77.88;101127.94;10448674;28;20041;-77
2023/09/26 01:19:35;;;;;;;5.55;4.93;;;;;;;12.11;78.14;101116.91;10430313;28;20053;-77
2023/09/26 01:24:42;;;;;;;6.18;5.38;;;;;;;12.02;78.58;101106.84;10451526;28;20045;-77
2023/09/26 01:29:47;;;;;;;5.03;4.53;;;;;;;11.99;78.64;101107.06;10440413;28;20165;-77
2023/09/26 01:34:50;;;;;;;5.30;4.80;;;;;;;11.98;78.81;101107.16;10430816;28;20063;-76
2023/09/26 01:39:54;;;;;;;5.75;5.10;;;;;;;11.90;79.04;101089.78;10444723;28;20541;-76
2023/09/26 01:44:57;;;;;;;7.47;5.15;;;;;;;11.89;78.79;101098.81;10431156;28;20044;-77
2023/09/26 01:50:00;;;;;;;5.32;4.82;;;;;;;11.90;79.03;101102.34;10410593;28;20073;-76
2023/09/26 01:55:06;;;;;;;6.35;4.63;;;;;;;11.93;78.82;101104.84;10434299;28;20049;-76
2023/09/26 02:00:11;;;;;;;6.05;5.00;;;;;;;11.88;78.83;101099.78;10428147;28;20127;-77
2023/09/26 02:05:17;;;;;;;5.97;4.75;;;;;;;11.86;78.69;101100.88;10429661;28;20076;-77
2023/09/26 02:10:21;;;;;;;6.00;5.35;;;;;;;11.79;79.20;101105.00;10418376;28;20045;-77
2023/09/26 02:15:25;;;;;;;5.70;5.20;;;;;;;11.71;79.46;101101.06;10419816;28;20049;-76
2023/09/26 02:20:29;;;;;;;7.45;5.22;;;;;;;11.66;79.73;101092.47;10429937;28;20055;-77
2023/09/26 02:25:35;;;;;;;6.72;5.40;;;;;;;11.58;80.03;101102.94;10426758;28;20048;-76
2023/09/26 02:30:39;;;;;;;6.03;5.40;;;;;;;11.54;80.25;101093.38;10422657;28;20060;-76
2023/09/26 02:35:42;;;;;;;7.40;5.63;;;;;;;11.41;80.31;101085.34;10417096;28;21684;-78
2023/09/26 02:40:46;;;;;;;7.03;5.57;;;;;;;11.40;80.87;101080.06;10453126;28;20064;-78
2023/09/26 02:45:49;;;;;;;6.85;5.57;;;;;;;11.47;80.53;101071.44;10429509;28;20060;-77
2023/09/26 02:50:52;;;;;;;7.28;5.50;;;;;;;11.47;80.16;101073.28;10429959;28;20056;-78
2023/09/26 02:55:56;;;;;;;8.25;5.85;;;;;;;11.34;80.48;101070.63;10429626;28;20055;-76
2023/09/26 03:01:00;;;;;;;6.20;5.60;;;;;;;11.37;80.39;101067.72;10450610;28;20058;-77
2023/09/26 03:06:03;;;;;;;6.60;5.60;;;;;;;11.26;80.75;101068.50;10452889;28;20048;-77
2023/09/26 03:11:08;;;;;;;7.32;5.95;;;;;;;11.24;80.96;101070.47;10441373;28;20189;-78
2023/09/26 03:16:13;;;;;;;6.50;5.72;;;;;;;11.23;81.01;101070.56;10438881;28;20044;-78
2023/09/26 03:21:16;;;;;;;7.03;6.35;;;;;;;11.13;81.33;101056.06;10452118;28;20055;-78
2023/09/26 03:26:20;;;;;;;7.45;6.07;;;;;;;11.08;81.67;101072.50;10453722;28;20041;-78
2023/09/26 03:31:23;;;;;;;7.30;6.05;;;;;;;11.06;82.06;101061.00;10432515;28;20132;-78
2023/09/26 03:36:27;;;;;;;6.88;5.88;;;;;;;11.00;82.49;101065.00;10434271;28;20132;-79
2023/09/26 03:41:31;;;;;;;7.65;6.82;;;;;;;11.05;82.36;101059.25;10436443;28;20144;-78
2023/09/26 03:46:34;;;;;;;8.55;6.45;;;;;;;11.00;82.42;101067.69;10452242;28;20056;-79
2023/09/26 03:51:37;;;;;;;9.05;7.72;;;;;;;10.99;82.69;101063.25;10481896;28;20052;-77
2023/09/26 03:56:42;;;;;;;9.30;6.50;;;;;;;10.98;82.36;101068.75;10449305;28;20051;-78
2023/09/26 04:01:47;;;;;;;7.85;6.95;;;;;;;10.91;82.83;101067.47;10458456;28;20045;-78
2023/09/26 04:06:50;;;;;;;8.02;7.05;;;;;;;10.94;82.73;101064.56;10458605;28;20059;-78
2023/09/26 04:11:54;;;;;;;7.22;6.53;;;;;;;10.91;82.53;101064.78;10444526;28;20431;-78
2023/09/26 04:16:57;;;;;;;6.60;6.00;;;;;;;10.87;82.93;101060.59;10442475;28;20048;-79
2023/09/26 04:22:00;;;;;;;7.43;6.72;;;;;;;10.85;82.68;101052.66;10439690;28;20407;-79
2023/09/26 04:27:04;;;;;;;7.47;6.78;;;;;;;10.74;82.65;101044.50;10444958;28;20050;-79
2023/09/26 04:32:07;;;;;;;9.77;6.95;;;;;;;10.65;83.15;101048.69;10450725;28;20732;-79
2023/09/26 04:37:10;;;;;;;8.73;7.28;;;;;;;10.59;83.72;101044.63;10449069;28;20043;-79
2023/09/26 04:42:15;;;;;;;8.77;7.63;;;;;;;10.57;83.89;101046.56;10447544;28;20110;-78
2023/09/26 04:47:17;;;;;;;9.25;7.32;;;;;;;10.63;83.87;101044.41;10443817;28;20070;-77
2023/09/26 04:52:20;;;;;;;10.63;7.82;;;;;;;10.67;83.85;101038.72;10446342;28;20060;-78
2023/09/26 04:57:25;;;;;;;7.95;7.20;;;;;;;10.55;83.65;101034.19;10457070;28;20052;-78
2023/09/26 05:02:28;;;;;;;9.00;8.07;;;;;;;10.48;84.34;101032.91;10451810;28;20507;-77
2023/09/26 05:07:31;;;;;;;10.77;8.35;;;;;;;10.55;84.25;101026.13;10460815;28;20048;-77
2023/09/26 05:12:37;;;;;;;11.80;8.27;;;;;;;10.56;84.15;101035.94;10485987;28;20068;-77
2023/09/26 05:17:41;;;;;;;11.02;8.35;;;;;;;10.55;84.19;101031.50;10464755;28;20668;-79
2023/09/26 05:22:47;;;;;;;7.80;6.95;;;;;;;10.55;83.95;101026.97;10436247;28;20053;-78
2023/09/26 05:27:51;;;;;;;10.52;7.60;;;;;;;10.58;83.37;101029.44;10439030;28;20724;-78
2023/09/26 05:32:54;;;;;;;10.20;8.02;;;;;;;10.63;83.01;101021.06;10441780;28;20178;-77
2023/09/26 05:37:59;;;;;;;9.52;7.63;;;;;;;10.59;82.99;101025.81;10450327;28;20045;-78
2023/09/26 05:43:04;;;;;;;16.33;7.20;;;;;;;10.56;82.45;101036.78;10453198;28;20053;-78
2023/09/26 05:48:07;;;;;;;11.18;7.80;;;;;;;10.60;82.70;101032.03;10453053;28;20118;-78
2023/09/26 05:53:11;;;;;;;9.00;7.93;;;;;;;10.68;82.70;101044.94;10453906;28;20049;-78
2023/09/26 05:58:16;;;;;;;10.55;8.05;;;;;;;10.72;83.22;101041.03;10463960;28;20049;-78
2023/09/26 06:03:18;;;;;;;10.95;8.07;;;;;;;10.80;83.49;101038.66;10493943;28;20049;-78
2023/09/26 06:08:22;;;;;;;12.02;9.63;;;;;;;11.01;83.31;101041.66;10463872;28;20041;-79
2023/09/26 06:13:27;;;;;;;8.90;4.85;;;;;;;11.67;83.36;101045.72;10460793;28;20901;-78
2023/09/26 06:18:30;;;;;;;7.82;5.63;;;;;;;12.75;78.51;101037.44;10455841;28;20048;-79
2023/09/26 06:23:33;;;;;;;8.10;6.00;;;;;;;13.13;75.98;101046.97;10461282;28;20512;-78
2023/09/26 06:28:37;;;;;;;10.32;6.25;;;;;;;13.46;72.49;101040.66;10460320;28;20044;-78
2023/09/26 06:33:40;;;;;;;6.50;4.65;;;;;;;13.41;73.29;101035.69;10456991;28;20426;-76
2023/09/26 06:38:43;;;;;;;6.13;3.83;;;;;;;13.99;71.43;101031.72;10452646;28;20557;-78
2023/09/26 06:43:48;;;;;;;4.32;3.55;;;;;;;14.50;69.07;101029.09;10454149;28;20045;-79
2023/09/26 06:48:52;;;;;;;9.82;5.32;;;;;;;14.58;68.13;101028.44;10454677;28;20056;-78
2023/09/26 06:53:55;;;;;;;11.10;6.85;;;;;;;14.73;68.08;101034.38;10457510;28;20128;-78
2023/09/26 06:58:59;;;;;;;9.20;6.60;;;;;;;14.69;67.67;101036.47;10450754;28;20045;-78
2023/09/26 07:04:03;;;;;;;10.73;7.07;;;;;;;14.64;68.27;101027.91;10446638;28;20080;-78
2023/09/26 07:09:07;;;;;;;11.13;7.10;;;;;;;14.63;68.13;101034.31;10456685;28;20048;-78
2023/09/26 07:14:11;;;;;;;8.60;5.97;;;;;;;14.77;68.50;101042.06;10437425;28;20044;-78
2023/09/26 07:19:14;;;;;;;8.25;6.13;;;;;;;15.21;67.47;101039.91;10457058;28;20048;-78
2023/09/26 07:24:17;;;;;;;6.45;5.07;;;;;;;15.37;66.46;101039.41;10456170;28;20186;-78
2023/09/26 07:29:21;;;;;;;8.63;7.07;;;;;;;15.30;66.21;101040.94;10456175;28;20628;-78
2023/09/26 07:34:24;;;;;;;8.50;6.32;;;;;;;15.69;65.84;101033.75;10459149;28;20052;-78
2023/09/26 07:39:27;;;;;;;9.40;7.75;;;;;;;15.84;65.99;101030.63;10460929;28;21509;-78
2023/09/26 07:44:32;;;;;;;7.72;6.93;;;;;;;16.18;65.66;101038.28;10456109;28;20049;-78
2023/09/26 07:49:35;;;;;;;10.05;7.00;;;;;;;16.24;63.97;101035.00;10456532;28;20419;-78
2023/09/26 07:54:38;;;;;;;10.52;6.93;;;;;;;16.13;63.82;101039.59;10455937;28;20515;-77
2023/09/26 07:59:42;;;;;;;11.95;7.70;;;;;;;15.90;65.07;101032.75;10452303;28;20071;-78
2023/09/26 08:04:45;;;;;;;9.40;5.60;;;;;;;16.32;64.52;101027.88;10457185;28;21148;-77
2023/09/26 08:09:48;;;;;;;7.47;5.90;;;;;;;16.78;63.11;101028.88;10456939;28;20040;-76
2023/09/26 08:14:55;;;;;;;6.75;6.15;;;;;;;17.04;61.99;101020.88;10476619;28;20110;-78
2023/09/26 08:19:58;;;;;;;8.50;7.60;;;;;;;17.39;61.81;101029.28;10458045;28;21259;-78
2023/09/26 08:25:01;;;;;;;8.63;7.53;;;;;;;17.44;61.46;101022.41;10452038;28;20055;-78
2023/09/26 08:30:07;;;;;;;8.93;6.35;;;;;;;17.86;60.19;101021.75;10450233;28;20055;-78
2023/09/26 08:35:11;;;;;;;7.00;6.15;;;;;;;17.93;59.50;101027.41;10447881;28;20687;-78
2023/09/26 08:40:14;;;;;;;7.78;6.45;;;;;;;18.32;59.05;101040.66;10452118;28;20052;-77
2023/09/26 08:45:19;;;;;;;6.95;6.05;;;;;;;18.75;57.78;101030.72;10447940;28;20093;-77
2023/09/26 08:50:22;;;;;;;10.25;6.72;;;;;;;19.03;56.64;101034.09;10445602;28;20044;-77
2023/09/26 08:55:25;;;;;;;7.95;5.47;;;;;;;19.40;56.93;101024.72;10438380;28;21275;-76
2023/09/26 09:00:30;;;;;;;6.85;5.70;;;;;;;19.44;56.18;101029.66;10446860;28;20135;-77
2023/09/26 09:05:33;;;;;;;6.60;5.88;;;;;;;19.49;56.34;101017.41;10448145;28;20037;-76
2023/09/26 09:10:48;;;;;;;8.15;5.63;;;;;;;19.72;55.34;101023.06;10443116;28;20047;-76
2023/09/26 09:16:06;;;;;;;6.82;5.80;;;;;;;20.02;55.39;101007.91;10433500;28;20048;-76
2023/09/26 09:21:24;;;;;;;6.20;5.57;;;;;;;20.49;55.32;101002.59;10448842;28;21123;-77
2023/09/26 09:26:30;;;;;;;9.35;5.50;;;;;;;20.75;53.26;100998.75;10467882;28;20045;-77
2023/09/26 09:31:34;;;;;;;6.93;5.57;;;;;;;21.33;51.11;100982.94;10459236;28;20605;-78
2023/09/26 09:36:38;;;;;;;8.30;5.00;;;;;;;21.56;52.00;100980.25;10456005;28;20055;-78
2023/09/26 09:41:41;;;;;;;7.00;4.80;;;;;;;22.04;49.86;100980.88;10454231;28;20125;-78
2023/09/26 09:46:48;;;;;;;5.05;4.30;;;;;;;22.16;48.67;100978.53;10453902;28;20079;-78
2023/09/26 09:51:56;;;;;;;5.28;4.78;;;;;;;22.45;50.04;100975.03;10458055;28;20053;-78
2023/09/26 09:57:00;;;;;;;9.13;4.47;;;;;;;22.47;49.47;100960.13;10457168;28;20531;-77
2023/09/26 10:02:05;;;;;;;6.75;4.32;;;;;;;22.43;49.38;100956.03;10442550;28;20138;-77
2023/09/26 10:07:09;;;;;;;6.65;3.92;;;;;;;22.89;47.04;100954.97;10452134;28;20078;-77
2023/09/26 10:12:14;;;;;;;4.97;3.45;;;;;;;23.10;46.69;100957.75;10457979;28;20201;-77
2023/09/26 10:17:19;;;;;;;4.45;3.30;;;;;;;23.52;46.96;100958.84;10462367;28;20064;-77
2023/09/26 10:22:22;;;;;;;11.73;3.40;;;;;;;24.11;46.11;100954.97;10479525;28;20044;-77
2023/09/26 10:27:42;;;;;;;4.78;3.40;;;;;;;23.92;45.43;100937.31;10479853;28;20136;-78
2023/09/26 10:33:03;;;;;;;6.38;3.22;;;;;;;24.36;45.71;100943.53;10463229;28;20052;-78
2023/09/26 10:38:18;;;;;;;4.20;3.30;;;;;;;24.61;42.64;100938.41;10459411;28;21159;-78
2023/09/26 10:43:21;;;;;;;4.85;2.25;;;;;;;24.70;41.74;100937.16;10459404;28;20036;-78
2023/09/26 10:48:28;;;;;;;2.70;2.45;;;;;;;25.17;41.50;100928.06;10453944;28;21304;-78
2023/09/26 10:53:30;;;;;;;3.65;2.75;;;;;;;26.16;40.97;100922.81;10455873;28;20045;-78
2023/09/26 10:58:34;;;;;;;5.90;2.78;;;;;;;26.42;39.54;100917.28;10438604;28;20224;-78
2023/09/26 11:03:39;;;;;;;4.63;3.03;;;;;;;26.51;39.61;100910.47;10453426;28;20049;-77
2023/09/26 11:08:43;;;;;;;3.35;2.45;;;;;;;26.92;38.66;100908.44;10451490;28;20145;-78
2023/09/26 11:13:46;;;;;;;3.33;3.05;;;;;;;27.35;37.57;100911.34;10450625;28;20190;-78
2023/09/26 11:18:55;;;;;;;4.15;2.28;;;;;;;27.69;37.56;100913.88;10449922;28;20044;-77
2023/09/26 11:23:59;;;;;;;3.40;3.10;;;;;;;27.49;37.80;100905.75;10454301;28;20047;-78
2023/09/26 11:29:02;;;;;;;4.18;2.45;;;;;;;27.57;38.57;100899.97;10465848;28;20041;-78
2023/09/26 11:34:09;;;;;;;2.65;2.30;;;;;;;28.61;36.83;100890.00;10467692;28;20463;-78
2023/09/26 11:39:15;;;;;;;4.80;2.30;;;;;;;29.31;35.65;100892.22;10465393;28;20048;-78
2023/09/26 11:44:18;;;;;;;2.50;2.20;;;;;;;29.12;35.81;100882.31;10462693;28;21183;-77
2023/09/26 11:49:24;;;;;;;2.65;2.45;;;;;;;29.01;35.85;100869.25;10466354;28;21390;-77
2023/09/26 11:54:28;;;;;;;3.25;2.15;;;;;;;29.30;34.98;100865.66;10472826;28;20052;-78
2023/09/26 11:59:31;;;;;;;3.22;2.00;;;;;;;29.63;33.75;100860.66;10466310;28;20446;-77
2023/09/26 12:04:36;;;;;;;4.15;2.13;;;;;;;29.00;34.62;100859.28;10468396;28;20062;-77
2023/09/26 12:09:41;;;;;;;2.75;1.60;;;;;;;28.99;33.85;100857.59;10469825;28;20095;-78
2023/09/26 12:14:46;;;;;;;2.60;1.90;;;;;;;28.95;33.62;100846.16;10471278;28;21152;-78
2023/09/26 12:19:50;;;;;;;2.70;1.70;;;;;;;28.38;33.41;100848.41;10453145;28;20055;-77
2023/09/26 12:24:53;;;;;;;2.70;1.67;;;;;;;28.24;33.81;100845.78;10470530;28;20058;-77
2023/09/26 12:29:56;;;;;;;2.03;1.52;;;;;;;28.02;33.05;100836.28;10476793;28;20044;-76
2023/09/26 12:35:00;;;;;;;2.83;1.55;;;;;;;28.43;32.92;100832.81;10470553;28;20039;-77
2023/09/26 12:40:07;;;;;;;2.90;1.42;;;;;;;30.67;30.25;100822.81;10467264;28;20047;-76
2023/09/26 12:45:11;;;;;;;2.08;1.40;;;;;;;32.58;27.13;100824.66;10466543;28;20056;-77
2023/09/26 12:50:15;;;;;;;2.83;1.70;;;;;;;32.83;26.95;100827.78;10471626;28;20041;-77
2023/09/26 12:55:19;;;;;;;1.77;1.67;;;;;;;33.72;28.04;100817.13;10466561;28;20047;-77
2023/09/26 13:00:22;;;;;;;2.63;1.77;;;;;;;32.72;27.07;100823.22;10465602;28;21218;-77
2023/09/26 13:05:27;;;;;;;3.03;1.35;;;;;;;29.96;29.18;100818.53;10465907;28;20052;-76
2023/09/26 13:10:31;;;;;;;1.40;1.30;;;;;;;30.22;30.90;100801.41;10473666;28;20053;-76
2023/09/26 13:15:40;;;;;;;1.55;1.45;;;;;;;28.57;31.41;100805.03;10465714;28;20051;-77
2023/09/26 13:20:44;;;;;;;1.90;1.70;;;;;;;27.51;33.11;100802.41;10469201;28;20072;-77
2023/09/26 13:25:47;;;;;;;1.95;1.80;;;;;;;29.12;33.26;100810.41;10472899;28;20049;-76
2023/09/26 13:30:50;;;;;;;1.65;1.55;;;;;;;29.03;32.43;100803.50;10497330;28;20654;-76
2023/09/26 13:35:55;;;;;;;1.55;1.40;;;;;;;29.71;31.03;100793.88;10491789;28;20036;-77
2023/09/26 13:40:58;;;;;;;2.47;1.13;;;;;;;31.19;30.36;100779.41;10466714;28;20506;-77
2023/09/26 13:46:01;;;;;;;1.33;1.23;;;;;;;31.28;30.40;100788.97;10469626;28;20554;-77
2023/09/26 13:51:06;;;;;;;1.77;1.40;;;;;;;32.08;29.30;100782.09;10475340;28;20048;-77
2023/09/26 13:56:09;;;;;;;1.83;1.73;;;;;;;31.58;30.29;100783.88;10467761;28;20128;-77
2023/09/26 14:01:13;;;;;;;2.67;1.60;;;;;;;31.09;29.96;100772.53;10467588;28;20109;-77
2023/09/26 14:06:17;;;;;;;1.55;1.45;;;;;;;30.74;30.93;100771.91;10458530;28;20055;-76
2023/09/26 14:11:20;;;;;;;1.92;1.58;;;;;;;29.94;31.10;100779.97;10452881;28;20103;-77
2023/09/26 14:16:24;;;;;;;1.52;1.33;;;;;;;28.41;33.69;100774.19;10429626;28;20416;-77
2023/09/26 14:21:29;;;;;;;3.40;1.40;;;;;;;28.45;35.33;100774.56;10443355;28;20044;-77
2023/09/26 14:26:31;;;;;;;1.90;1.80;;;;;;;28.69;34.36;100778.31;10434107;28;20064;-76
2023/09/26 14:31:34;;;;;;;3.63;1.63;;;;;;;27.72;35.35;100776.25;10424148;28;22217;-76
2023/09/26 14:36:39;;;;;;;3.65;1.60;;;;;;;27.83;39.93;100769.97;10457896;28;20040;-77
2023/09/26 14:41:41;;;;;;;3.33;1.60;;;;;;;27.84;38.39;100781.91;10434877;28;20533;-77
2023/09/26 14:46:45;;;;;;;2.65;1.60;;;;;;;27.27;36.15;100770.97;10448190;28;20058;-76
2023/09/26 14:51:50;;;;;;;2.95;1.30;;;;;;;27.33;36.90;100777.50;10447229;28;20113;-76
2023/09/26 14:56:52;;;;;;;3.63;1.60;;;;;;;27.31;35.08;100771.34;10426511;28;20045;-76
2023/09/26 15:01:58;;;;;;;1.75;1.50;;;;;;;26.51;39.79;100763.66;10448631;28;20998;-76
2023/09/26 15:07:02;;;;;;;3.90;1.40;;;;;;;26.03;38.60;100761.31;10448254;28;20059;-76
2023/09/26 15:12:06;;;;;;;1.77;1.67;;;;;;;25.90;42.38;100767.72;10451460;28;20084;-76
2023/09/26 15:17:09;;;;;;;2.17;1.65;;;;;;;25.87;40.30;100764.56;10450197;28;20053;-77
2023/09/26 15:22:13;;;;;;;1.30;1.20;;;;;;;25.75;42.39;100761.59;10451474;28;20056;-76
2023/09/26 15:27:16;;;;;;;1.70;1.42;;;;;;;25.56;40.06;100766.94;10446927;28;20059;-77
2023/09/26 15:32:19;;;;;;;2.92;1.65;;;;;;;24.80;46.74;100766.50;10447378;28;20097;-76
2023/09/26 15:37:23;;;;;;;3.55;1.80;;;;;;;24.31;49.29;100771.19;10433602;28;20047;-76
2023/09/26 15:42:26;;;;;;;2.10;1.73;;;;;;;24.04;49.25;100762.00;10461506;28;20499;-76
2023/09/26 15:47:29;;;;;;;4.63;1.70;;;;;;;23.65;49.58;100764.28;10471331;28;20140;-77
2023/09/26 15:52:35;;;;;;;2.10;1.90;;;;;;;23.25;51.98;100756.84;10463733;28;20060;-77
2023/09/26 15:57:38;;;;;;;3.53;1.92;;;;;;;22.90;53.78;100756.72;10447540;28;20143;-77
2023/09/26 16:02:41;;;;;;;2.55;2.20;;;;;;;22.52;53.77;100759.72;10451589;28;20044;-77
2023/09/26 16:07:45;;;;;;;2.10;1.90;;;;;;;22.14;53.33;100761.78;10462032;28;21507;-78
2023/09/26 16:12:48;;;;;;;2.17;1.80;;;;;;;22.19;54.09;100759.28;10477943;28;20569;-78
2023/09/26 16:17:59;;;;;;;2.45;2.15;;;;;;;21.97;53.57;100766.59;10474460;28;20047;-77
2023/09/26 16:23:03;;;;;;;1.90;1.55;;;;;;;21.82;52.10;100772.06;10487886;28;20061;-77
2023/09/26 16:28:06;;;;;;;2.03;1.83;;;;;;;21.77;51.22;100774.53;10469765;28;20054;-77
2023/09/26 16:33:09;;;;;;;4.75;2.00;;;;;;;21.36;51.62;100783.13;10469666;28;20430;-77
2023/09/26 16:38:14;;;;;;;3.20;2.05;;;;;;;21.39;53.17;100783.63;10469863;28;20074;-77
2023/09/26 16:43:17;;;;;;;3.78;2.03;;;;;;;21.29;55.73;100793.97;10477178;28;20538;-77
2023/09/26 16:48:19;;;;;;;2.75;2.10;;;;;;;21.08;56.15;100785.59;10469238;28;20044;-76
2023/09/26 16:53:24;;;;;;;2.17;1.80;;;;;;;20.90;55.70;100803.13;10470411;28;20047;-76
2023/09/26 16:58:27;;;;;;;1.95;1.85;;;;;;;20.76;56.23;100792.97;10465046;28;20056;-76
2023/09/26 17:03:30;;;;;;;3.47;2.00;;;;;;;20.51;56.59;100792.28;10463933;28;20048;-76
2023/09/26 17:08:34;;;;;;;5.00;1.92;;;;;;;20.42;57.60;100786.03;10463625;28;20052;-76
2023/09/26 17:13:37;;;;;;;2.53;2.30;;;;;;;20.32;58.84;100786.28;10448365;28;20048;-77
2023/09/26 17:18:41;;;;;;;5.47;2.33;;;;;;;20.24;59.53;100791.75;10473158;28;20151;-77
2023/09/26 17:23:45;;;;;;;3.67;2.38;;;;;;;20.01;59.44;100791.66;10485915;28;20477;-75
2023/09/26 17:28:48;;;;;;;2.85;2.47;;;;;;;19.88;60.17;100794.09;10472703;28;20669;-76
2023/09/26 17:33:52;;;;;;;4.88;2.70;;;;;;;19.79;60.47;100798.72;10456504;28;20079;-77
2023/09/26 17:38:56;;;;;;;3.55;2.58;;;;;;;19.73;61.05;100793.13;10475430;28;20106;-77
2023/09/26 17:43:59;;;;;;;5.10;2.65;;;;;;;19.67;61.59;100787.34;10480419;28;20053;-77
2023/09/26 17:49:03;;;;;;;3.72;2.92;;;;;;;19.61;62.84;100788.03;10476311;28;20563;-76
2023/09/26 17:54:08;;;;;;;4.68;2.63;;;;;;;19.46;62.80;100785.13;10447722;28;20131;-75
2023/09/26 17:59:11;;;;;;;4.35;3.08;;;;;;;19.44;63.53;100787.19;10484173;28;20048;-77
2023/09/26 18:04:14;;;;;;;4.25;3.10;;;;;;;19.41;63.97;100782.06;10479835;28;20049;-77
2023/09/26 18:09:18;;;;;;;6.50;3.65;;;;;;;19.35;64.38;100787.38;10475980;28;20053;-77
2023/09/26 18:14:21;;;;;;;4.40;4.00;;;;;;;19.20;65.02;100784.50;10474195;28;20048;-77
2023/09/26 18:19:24;;;;;;;5.97;4.47;;;;;;;19.04;65.93;100784.50;10441438;28;20053;-77
2023/09/26 18:24:28;;;;;;;15.20;6.47;;;;;;;18.91;66.74;100793.16;10447322;28;20055;-78
2023/09/26 18:29:31;;;;;;;6.90;5.85;;;;;;;18.85;67.69;100789.25;10447566;28;20050;-77
2023/09/26 18:34:34;;;;;;;6.28;4.78;;;;;;;18.85;67.95;100791.13;10442509;28;20617;-77
2023/09/26 18:39:39;;;;;;;6.45;4.90;;;;;;;18.89;68.44;100787.03;10439446;28;20044;-79
2023/09/26 18:44:42;;;;;;;8.52;4.95;;;;;;;18.81;69.22;100790.59;10444558;28;20053;-79
2023/09/26 18:49:45;;;;;;;5.90;5.00;;;;;;;18.79;69.27;100806.28;10465304;28;20033;-78
2023/09/26 18:54:49;;;;;;;6.63;5.93;;;;;;;18.80;69.10;100807.97;10449873;28;20102;-78
2023/09/26 18:59:52;;;;;;;8.38;5.25;;;;;;;18.84;68.72;100808.47;10435766;28;20075;-80
2023/09/26 19:04:55;;;;;;;7.07;5.72;;;;;;;18.75;68.79;100810.28;10449103;28;20059;-79
2023/09/26 19:09:59;;;;;;;9.48;7.00;;;;;;;18.69;69.21;100819.97;10440021;28;20060;-78
2023/09/26 19:15:02;;;;;;;9.07;6.60;;;;;;;18.56;70.66;100808.72;10441782;28;20056;-79
2023/09/26 19:20:06;;;;;;;8.35;6.43;;;;;;;18.38;72.20;100808.84;10454804;28;20054;-79
2023/09/26 19:25:11;;;;;;;6.65;5.63;;;;;;;18.31;72.85;100810.53;10429216;28;20080;-77
2023/09/26 19:30:14;;;;;;;6.13;5.63;;;;;;;18.23;73.07;100813.22;10453205;28;20052;-78
2023/09/26 19:35:17;;;;;;;6.43;5.38;;;;;;;18.13;73.25;100806.06;10433921;28;20051;-79
2023/09/26 19:40:21;;;;;;;9.15;5.00;;;;;;;18.04;73.57;100798.84;10452229;28;20068;-78
2023/09/26 19:45:24;;;;;;;6.95;6.25;;;;;;;17.96;73.82;100793.34;10432632;28;20132;-77
2023/09/26 19:50:27;;;;;;;8.07;5.70;;;;;;;17.92;74.15;100786.56;10452063;28;20048;-77
2023/09/26 19:55:32;;;;;;;6.18;5.57;;;;;;;17.85;74.43;100801.78;10473325;28;20426;-78
2023/09/26 20:00:34;;;;;;;7.60;5.75;;;;;;;17.83;74.44;100799.25;10477043;28;20118;-79
2023/09/26 20:05:37;;;;;;;6.47;5.72;;;;;;;17.80;74.53;100795.97;10473640;28;20722;-79
2023/09/26 20:10:42;;;;;;;8.48;6.10;;;;;;;17.65;74.98;100803.91;10477193;28;20052;-77
2023/09/26 20:15:45;;;;;;;7.72;6.10;;;;;;;17.61;75.18;100799.81;10445213;28;20207;-79
2023/09/26 20:20:48;;;;;;;9.60;6.50;;;;;;;17.59;75.34;100809.97;10450886;28;20053;-78
2023/09/26 20:25:58;;;;;;;7.13;6.43;;;;;;;17.55;75.48;100809.44;10449380;28;20515;-76
2023/09/26 20:31:01;;;;;;;6.93;6.03;;;;;;;17.48;75.40;100806.50;10452158;28;20388;-77
2023/09/26 20:36:04;;;;;;;6.60;5.82;;;;;;;17.40;75.66;100811.03;10449549;28;20119;-77
2023/09/26 20:41:09;;;;;;;8.95;6.00;;;;;;;17.40;75.66;100814.59;10454779;28;20044;-78
2023/09/26 20:46:12;;;;;;;10.68;7.00;;;;;;;17.45;75.73;100819.56;10448599;28;20182;-78
2023/09/26 20:51:15;;;;;;;10.43;6.60;;;;;;;17.42;75.98;100822.59;10451437;28;20049;-78
2023/09/26 20:56:19;;;;;;;7.82;6.60;;;;;;;17.37;75.82;100841.22;10458627;28;21043;-75
2023/09/26 21:01:22;;;;;;;10.13;6.38;;;;;;;17.31;76.51;100839.16;10476037;28;20115;-77
2023/09/26 21:06:26;;;;;;;8.35;6.20;;;;;;;17.31;76.49;100848.13;10450278;28;20265;-77
2023/09/26 21:11:30;;;;;;;7.28;6.55;;;;;;;17.27;76.82;100825.00;10445333;28;20041;-78
2023/09/26 21:16:33;;;;;;;8.98;6.72;;;;;;;17.21;76.79;100822.94;10447055;28;20458;-78
2023/09/26 21:21:36;;;;;;;7.45;6.70;;;;;;;17.29;76.70;100839.28;10452186;28;20049;-78
2023/09/26 21:26:42;;;;;;;10.48;6.97;;;;;;;17.32;76.42;100843.56;10458759;28;20659;-78
2023/09/26 21:31:45;;;;;;;7.10;6.47;;;;;;;17.38;76.58;100842.91;10457285;28;20080;-78
2023/09/26 21:36:47;;;;;;;8.55;6.05;;;;;;;17.31;76.78;100841.88;10460482;28;20064;-77
2023/09/26 21:41:52;;;;;;;5.90;5.30;;;;;;;17.21;77.04;100856.34;10462180;28;20519;-77
2023/09/26 21:46:55;;;;;;;6.82;5.65;;;;;;;17.15;77.70;100848.00;10464367;28;20412;-77
2023/09/26 21:51:58;;;;;;;6.47;5.78;;;;;;;17.08;78.28;100858.56;10460778;28;20051;-77
2023/09/26 21:57:02;;;;;;;6.90;6.25;;;;;;;17.02;77.75;100853.78;10486704;28;20057;-77
2023/09/26 22:02:05;;;;;;;7.03;5.97;;;;;;;17.09;77.67;100846.72;10480643;27;20071;-78
2023/09/26 22:07:08;;;;;;;6.75;6.05;;;;;;;17.05;77.07;100845.31;10462350;27;20055;-76
2023/09/26 22:12:14;;;;;;;8.18;6.65;;;;;;;16.86;77.67;100840.91;10464353;28;20135;-78
2023/09/26 22:17:17;;;;;;;7.90;6.97;;;;;;;16.67;78.18;100836.47;10472868;28;20047;-79
2023/09/26 22:22:20;;;;;;;9.05;7.50;;;;;;;16.54;78.43;100823.28;10464332;28;20138;-78
2023/09/26 22:27:25;;;;;;;8.48;7.10;;;;;;;16.50;78.39;100821.88;10460091;28;20040;-77
2023/09/26 22:32:28;;;;;;;6.97;6.38;;;;;;;16.43;78.45;100822.63;10466330;27;20507;-77
2023/09/26 22:37:33;;;;;;;10.40;6.88;;;;;;;16.36;78.48;100815.09;10457782;28;20045;-76
2023/09/26 22:42:37;;;;;;;7.93;7.13;;;;;;;16.26;78.64;100827.84;10456442;28;20052;-77
2023/09/26 22:47:40;;;;;;;8.57;7.03;;;;;;;16.29;78.79;100827.59;10461509;28;20060;-78
2023/09/26 22:52:43;;;;;;;8.13;6.97;;;;;;;16.28;78.51;100825.00;10443028;28;20041;-76
2023/09/26 22:57:47;;;;;;;9.65;6.53;;;;;;;16.16;78.86;100835.16;10443969;28;20049;-76
2023/09/26 23:02:50;;;;;;;11.68;6.78;;;;;;;16.11;79.29;100826.63;10458042;28;20052;-77
2023/09/26 23:07:53;;;;;;;8.02;7.30;;;;;;;16.07;79.22;100822.50;10478772;28;20040;-76
2023/09/26 23:12:57;;;;;;;8.90;7.00;;;;;;;15.95;79.62;100826.41;10458494;28;21316;-78
2023/09/26 23:18:00;;;;;;;7.18;6.47;;;;;;;15.91;79.86;100815.03;10453994;28;20060;-78